createdAt,value
2022-10-01T00:01:59.617Z,2.85
2022-10-01T00:12:08.252Z,2.81
2022-10-01T00:22:15.603Z,2.95
2022-10-01T00:32:22.265Z,2.86
2022-10-01T00:42:30.177Z,2.59
2022-10-01T00:52:36.785Z,2.58
2022-10-01T01:02:43.529Z,2.44
2022-10-01T01:12:50.299Z,2.43
2022-10-01T01:22:56.933Z,2.72
2022-10-01T01:33:03.575Z,3.75
2022-10-01T01:43:10.329Z,3.25
2022-10-01T01:53:18.344Z,3.57
2022-10-01T02:03:25.102Z,3.33
2022-10-01T02:13:31.725Z,3.19
2022-10-01T02:23:38.362Z,4.19
2022-10-01T02:33:46.391Z,2.85
2022-10-01T02:43:52.516Z,2.1
2022-10-01T02:53:59.152Z,3.21
2022-10-01T03:04:05.777Z,2.4
2022-10-01T03:14:12.460Z,4.3
2022-10-01T03:24:19.093Z,4.49
2022-10-01T03:34:25.692Z,3.37
2022-10-01T03:44:32.432Z,3.17
2022-10-01T03:54:40.112Z,3.1
2022-10-01T04:04:46.580Z,1.5
2022-10-01T04:14:53.239Z,3.28
2022-10-01T04:24:59.873Z,4.16
2022-10-01T04:35:06.561Z,3.37
2022-10-01T04:45:13.173Z,1.68
2022-10-01T04:55:20.610Z,2.99
2022-10-01T05:05:27.992Z,2.07
2022-10-01T05:15:35.335Z,1.88
2022-10-01T05:25:42.750Z,2.23
2022-10-01T05:35:50.254Z,1.89
2022-10-01T05:45:57.777Z,2.76
2022-10-01T05:56:05.236Z,2.82
2022-10-01T06:06:12.792Z,1.89
2022-10-01T06:16:20.589Z,3.97
2022-10-01T06:26:27.978Z,2.68
2022-10-01T06:36:35.479Z,1.61
2022-10-01T06:46:42.984Z,1.96
2022-10-01T06:56:51.610Z,1.31
2022-10-01T07:06:59.105Z,1.34
2022-10-01T07:17:06.520Z,1.23
2022-10-01T07:27:15.307Z,0.91
2022-10-01T07:37:22.872Z,1.35
2022-10-01T07:47:30.275Z,1.17
2022-10-01T07:57:39.602Z,1.46
2022-10-01T08:07:47.048Z,0.96
2022-10-01T08:17:54.516Z,1
2022-10-01T08:28:02.027Z,0.83
2022-10-01T08:38:09.488Z,0.86
2022-10-01T08:48:17.124Z,0.99
2022-10-01T08:58:24.675Z,1.36
2022-10-01T09:08:32.256Z,1.57
2022-10-01T09:18:41.096Z,1.31
2022-10-01T09:28:49.687Z,1.75
2022-10-01T09:38:56.910Z,1.3
2022-10-01T09:49:04.395Z,1.04
2022-10-01T09:59:11.947Z,1.61
2022-10-01T10:09:19.787Z,1.69
2022-10-01T10:19:27.335Z,1.11
2022-10-01T10:29:34.943Z,1.39
2022-10-01T10:39:42.382Z,1.47
2022-10-01T10:49:50.072Z,1.04
2022-10-01T10:59:57.591Z,1.27
2022-10-01T11:10:05.118Z,2.49
2022-10-01T11:20:13.536Z,1.11
2022-10-01T11:30:19.718Z,0.62
2022-10-01T11:40:27.259Z,0.8
2022-10-01T11:50:38.575Z,0.86
2022-10-01T12:00:41.971Z,1.39
2022-10-01T12:10:52.953Z,0.75
2022-10-01T12:20:50.378Z,0.73
2022-10-01T12:30:57.857Z,0.97
2022-10-01T12:41:05.305Z,0.77
2022-10-01T12:51:12.889Z,0.64
2022-10-01T13:01:21.453Z,0.85
2022-10-01T13:11:29.906Z,2.65
2022-10-01T13:21:38.580Z,1.54
2022-10-01T13:31:46.009Z,1.28
2022-10-01T13:41:53.830Z,1.05
2022-10-01T13:52:04.549Z,0.93
2022-10-01T14:02:05.525Z,0.92
2022-10-01T14:12:04.266Z,0.9
2022-10-01T14:22:12.184Z,0.83
2022-10-01T14:32:21.910Z,0.97
2022-10-01T14:42:30.489Z,0.73
2022-10-01T14:52:38.073Z,1.08
2022-10-01T15:02:45.574Z,0.69
2022-10-01T15:12:53.093Z,0.89
2022-10-01T15:23:04.590Z,0.95
2022-10-01T15:33:01.850Z,0.73
2022-10-01T15:43:09.459Z,1.09
2022-10-01T15:53:16.976Z,0.73
2022-10-01T16:03:24.448Z,0.72
2022-10-01T16:13:31.876Z,0.89
2022-10-01T16:23:39.480Z,0.8
2022-10-01T16:33:46.961Z,0.98
2022-10-01T16:43:54.369Z,1.03
2022-10-01T16:54:01.771Z,1.18
2022-10-01T17:04:09.311Z,1.02
2022-10-01T17:14:16.821Z,0.72
2022-10-01T17:24:24.242Z,0.9
2022-10-01T17:34:31.707Z,0.81
2022-10-01T17:44:39.247Z,0.75
2022-10-01T17:54:46.720Z,0.78
2022-10-01T18:04:58.535Z,0.9
2022-10-01T18:14:57.442Z,0.7
2022-10-01T18:25:09.298Z,0.84
2022-10-01T18:35:08.754Z,0.98
2022-10-01T18:45:16.193Z,1.38
2022-10-01T18:55:28.133Z,1.99
2022-10-01T19:05:25.725Z,1.18
2022-10-01T19:15:33.850Z,1.47
2022-10-01T19:25:43.673Z,1.49
2022-10-01T19:35:52.340Z,1.19
2022-10-01T19:46:05.855Z,1.7
2022-10-01T19:56:06.772Z,1.97
2022-10-01T20:06:06.173Z,2.36
2022-10-01T20:16:15.678Z,4.5
2022-10-01T20:26:22.887Z,2.73
2022-10-01T20:36:34.095Z,2.69
2022-10-01T20:46:45.539Z,3.27
2022-10-01T20:56:42.944Z,3.14
2022-10-01T21:06:51.442Z,3.39
2022-10-01T21:16:58.929Z,3.23
2022-10-01T21:27:07.239Z,3.86
2022-10-01T21:37:14.835Z,10.19
2022-10-01T21:47:23.454Z,7.4
2022-10-01T21:57:33.282Z,7.92
2022-10-01T22:07:43.185Z,16
2022-10-01T22:17:51.015Z,3.65
2022-10-01T22:27:58.690Z,6.19
2022-10-01T22:38:07.231Z,6.12
2022-10-01T22:48:14.857Z,8.1
2022-10-01T22:58:23.669Z,5.6
2022-10-01T23:08:30.070Z,4.56
2022-10-01T23:18:36.665Z,4.82
2022-10-01T23:28:43.371Z,4.54
2022-10-01T23:38:51.129Z,2.98
2022-10-01T23:48:57.794Z,2.69
2022-10-01T23:59:04.346Z,2.78
